Archival Weather

Aeroparque Jorge Newbery

Buenos Aires, Argentina (SABE)

Report from: Thursday, September 21, 2023 4:00 AM -03
Current time: Thursday, July 18, 2024 11:58 PM -03

Current weather – Weather history – Daily summaries
Weather forecast

Present weatherMist
Temperature16.0°C (60.8°F)
Dew point16.0°C (60.8°F)
Winds 3 kts (1.5 m/s, 3.5 mph) East (80°)
Visibility3937 ft. (1.2 km)
Clouds Ceiling: Overcast 200 ft. (61 m)
Altimeter29.83 in.Hg (1010 mB)
Relative humidity100 %
Density altitude478 ft. (146 m)
Remarks No significant changes expected in the next two hours
Flight conditions Low Instrument Meteorological Conditions
Raw dataSABE 210700Z 08003KT 1200 R13/P2000N BR OVC002 16/16 Q1010 NOSIG RMK PP999
An error has occurred. This application may no longer respond until reloaded. Reload 🗙